首页
METAR-TAF:

METAR-TAF

机场 :

乃磨機場

纳奈莫, 不列颠哥伦比亚, 加拿大

纬度: 49-03N, 经度: 123-52W, 海拔: 28米

当前天气观测

该预报发布于1小时和14分钟前的23:00 UTC
风速5节,风向东转东南,在东转东北南转南东之间变化
温度 17°C
湿度 52%
气压 1023 hPa
能見度: 48.3公里
少量云层高于5000英尺
多云层高于23000英尺

METAR: CYCD 202300Z 11005KT 060V150 30SM FEW050 BKN230 17/07 A3020 RMK CU1CI6 SLP228

时间: 17:14 (00:14 UTC)

预报

该预报发布于34分钟前的23:40 UTC
预报有效从21日的 00点(UTC)到 21日的 04点(UTC)
风速3节,风向多变
能見度: 10公里
少量云层高于5000英尺
多云层高于23000英尺
短暂存在
从 21日的 00点(UTC)到 21日的 04点(UTC)
多云层高于5000英尺

TAF: CYCD 202340Z 2100/2104 VRB03KT P6SM FEW050 BKN230 TEMPO 2100/2104 BKN050 RMK NXT FCST BY 211500Z

超过4000个机场的气象观测和天气预报(METAR&TAF报告)。

可查询的气象台以黄色和红色小点在地图上表示。

将鼠标移到小点上方,可查看气象台名称。

然后点击查看天气观测和预报。

如需切换地图:点击带黑十字的绿色按钮放大地图;点击带横线的绿色按钮缩小地图;或者点击绿色箭头查看邻近地区的地图。


METAR-TAF: